createdAt,value
2022-12-26T00:00:58.065Z,9.09
2022-12-26T00:03:26.300Z,9.13
2022-12-26T00:05:55.389Z,9.26
2022-12-26T00:08:23.091Z,9.25
2022-12-26T00:10:50.745Z,9.24
2022-12-26T00:13:38.411Z,9.21
2022-12-26T00:16:08.396Z,9.24
2022-12-26T00:18:36.372Z,9.22
2022-12-26T00:21:06.009Z,9.22
2022-12-26T00:23:34.337Z,9.28
2022-12-26T00:26:04.163Z,9.34
2022-12-26T00:28:31.875Z,9.27
2022-12-26T00:30:59.894Z,9.33
2022-12-26T00:33:28.136Z,9.35
2022-12-26T00:35:55.815Z,9.37
2022-12-26T00:38:24.921Z,9.34
2022-12-26T00:40:52.620Z,9.34
2022-12-26T00:43:20.283Z,9.34
2022-12-26T00:45:49.810Z,9.38
2022-12-26T00:48:17.536Z,9.38
2022-12-26T00:50:45.265Z,9.36
2022-12-26T00:53:12.957Z,9.37
2022-12-26T00:55:42.115Z,9.52
2022-12-26T00:58:09.922Z,9.42
2022-12-26T01:00:38.307Z,9.43
2022-12-26T01:03:08.663Z,9.40
2022-12-26T01:05:36.461Z,9.49
2022-12-26T01:08:21.560Z,9.55
2022-12-26T01:10:54.190Z,9.55
2022-12-26T01:13:22.164Z,9.60
2022-12-26T01:15:51.631Z,9.59
2022-12-26T01:18:19.674Z,9.58
2022-12-26T01:20:47.564Z,9.58
2022-12-26T01:23:15.515Z,9.56
2022-12-26T01:26:17.936Z,9.55
2022-12-26T01:28:32.269Z,9.58
2022-12-26T01:31:02.581Z,9.63
2022-12-26T01:33:30.280Z,9.66
2022-12-26T01:35:57.999Z,9.69
2022-12-26T01:38:26.213Z,9.66
2022-12-26T01:41:14.466Z,9.64
2022-12-26T01:43:52.846Z,9.52
2022-12-26T01:46:23.419Z,9.43
2022-12-26T01:48:52.439Z,9.40
2022-12-26T01:51:24.062Z,9.39
2022-12-26T01:53:55.356Z,9.41
2022-12-26T01:56:46.195Z,9.37
2022-12-26T01:59:19.334Z,9.35
2022-12-26T02:01:49.683Z,9.39
2022-12-26T02:04:40.293Z,9.38
2022-12-26T02:07:08.581Z,9.38
2022-12-26T02:09:37.324Z,9.35
2022-12-26T02:12:33.870Z,9.38
2022-12-26T02:15:02.815Z,9.35
2022-12-26T02:17:30.605Z,9.35
2022-12-26T02:20:06.809Z,9.38
2022-12-26T02:23:00.132Z,9.34
2022-12-26T02:26:16.679Z,9.31
2022-12-26T02:29:20.137Z,9.33
2022-12-26T02:31:57.322Z,9.22
2022-12-26T02:34:31.553Z,9.22
2022-12-26T02:37:14.404Z,9.24
2022-12-26T02:39:56.135Z,9.23
2022-12-26T02:42:33.733Z,9.20
2022-12-26T02:45:28.115Z,9.23
2022-12-26T02:48:07.385Z,9.28
2022-12-26T02:51:03.626Z,9.33
2022-12-26T02:54:02.468Z,9.41
2022-12-26T02:56:52.798Z,9.31
2022-12-26T02:59:56.195Z,9.40
2022-12-26T03:02:48.759Z,9.32
2022-12-26T03:05:40.710Z,9.32
2022-12-26T03:08:32.060Z,9.43
2022-12-26T03:11:17.389Z,9.48
2022-12-26T03:13:46.919Z,9.41
2022-12-26T03:16:34.167Z,9.43
2022-12-26T03:19:06.685Z,9.55
2022-12-26T03:21:40.262Z,9.67
2022-12-26T03:24:11.214Z,9.59
2022-12-26T03:26:43.812Z,9.59
2022-12-26T03:29:31.200Z,9.61
2022-12-26T03:31:59.326Z,9.58
2022-12-26T03:34:28.235Z,9.61
2022-12-26T03:37:17.081Z,9.83
2022-12-26T03:40:12.266Z,9.86
2022-12-26T03:43:16.720Z,9.86
2022-12-26T03:46:10.031Z,9.83
2022-12-26T03:49:03.893Z,9.89
2022-12-26T03:51:56.830Z,9.77
2022-12-26T03:54:48.781Z,9.92
2022-12-26T03:57:38.188Z,9.91
2022-12-26T04:00:26.534Z,9.92
2022-12-26T04:03:17.502Z,9.95
2022-12-26T04:06:05.609Z,9.97
2022-12-26T04:09:00.456Z,10.05
2022-12-26T04:11:46.608Z,10.13
2022-12-26T04:14:42.191Z,10.27
2022-12-26T04:17:36.058Z,10.22
2022-12-26T04:20:09.583Z,10.22
2022-12-26T04:23:01.834Z,10.15
2022-12-26T04:25:51.828Z,10.07
2022-12-26T04:28:40.111Z,10.16
2022-12-26T04:31:30.124Z,10.11
2022-12-26T04:34:19.267Z,10.18
2022-12-26T04:37:09.042Z,10.19
2022-12-26T04:39:57.029Z,10.17
2022-12-26T04:42:43.971Z,10.32
2022-12-26T04:45:14.910Z,10.30
2022-12-26T04:48:02.993Z,10.25
2022-12-26T04:50:29.775Z,10.22
2022-12-26T04:52:59.704Z,10.32
2022-12-26T04:55:30.123Z,10.25
2022-12-26T04:57:58.079Z,10.27
2022-12-26T05:00:28.618Z,10.33
2022-12-26T05:03:18.718Z,10.31
2022-12-26T05:06:09.526Z,10.31
2022-12-26T05:08:57.847Z,10.45
2022-12-26T05:11:26.028Z,10.48
2022-12-26T05:13:54.432Z,10.56
2022-12-26T05:16:41.607Z,10.42
2022-12-26T05:19:29.545Z,10.40
2022-12-26T05:22:15.928Z,10.39
2022-12-26T05:25:02.915Z,10.38
2022-12-26T05:27:54.070Z,10.27
2022-12-26T05:30:22.004Z,10.34
2022-12-26T05:33:08.216Z,10.32
2022-12-26T05:35:36.552Z,10.50
2022-12-26T05:38:04.915Z,10.52
2022-12-26T05:40:33.000Z,10.57
2022-12-26T05:43:00.634Z,10.49
2022-12-26T05:45:28.325Z,10.46
2022-12-26T05:48:00.284Z,10.67
2022-12-26T05:50:28.029Z,10.74
2022-12-26T05:52:57.550Z,10.68
2022-12-26T05:55:25.357Z,10.70
2022-12-26T05:57:53.191Z,10.73
2022-12-26T06:00:21.041Z,10.86
2022-12-26T06:02:48.887Z,10.75
2022-12-26T06:05:18.318Z,10.78
2022-12-26T06:07:45.936Z,10.85
2022-12-26T06:10:14.051Z,10.84
2022-12-26T06:12:41.704Z,10.92
2022-12-26T06:15:10.581Z,10.97
2022-12-26T06:17:38.252Z,11.01
2022-12-26T06:20:07.012Z,11.04
2022-12-26T06:22:36.008Z,11.05
2022-12-26T06:25:03.642Z,11.04
2022-12-26T06:27:31.322Z,10.90
2022-12-26T06:29:58.949Z,10.89
2022-12-26T06:32:26.569Z,10.80
2022-12-26T06:34:54.242Z,10.84
2022-12-26T06:37:21.957Z,10.90
2022-12-26T06:39:50.937Z,10.87
2022-12-26T06:42:18.592Z,10.78
2022-12-26T06:44:46.248Z,10.73
2022-12-26T06:47:13.992Z,10.70
2022-12-26T06:49:41.796Z,10.75
2022-12-26T06:52:11.091Z,10.72
2022-12-26T06:54:38.818Z,10.76
2022-12-26T06:57:08.269Z,10.69
2022-12-26T06:59:36.077Z,10.73
2022-12-26T07:02:03.938Z,10.81
2022-12-26T07:04:31.860Z,10.81
2022-12-26T07:07:00.049Z,10.80
2022-12-26T07:09:33.542Z,10.79
2022-12-26T07:12:01.955Z,10.82
2022-12-26T07:14:31.030Z,10.78
2022-12-26T07:16:58.824Z,10.85
2022-12-26T07:19:26.546Z,10.72
2022-12-26T07:21:54.272Z,10.77
2022-12-26T07:24:23.168Z,10.75
2022-12-26T07:26:50.940Z,10.71
2022-12-26T07:29:19.027Z,10.72
2022-12-26T07:31:48.038Z,10.76
2022-12-26T07:34:16.725Z,10.91
2022-12-26T07:36:44.420Z,10.81
2022-12-26T07:39:14.019Z,10.83
2022-12-26T07:41:59.691Z,10.89
2022-12-26T07:44:28.490Z,11.13
2022-12-26T07:46:58.519Z,11.15
2022-12-26T07:49:26.395Z,11.13
2022-12-26T07:51:54.165Z,11.05
2022-12-26T07:54:21.981Z,11.07
2022-12-26T07:56:49.658Z,11.00
2022-12-26T07:59:18.919Z,11.07
2022-12-26T08:01:46.780Z,11.00
2022-12-26T08:04:15.909Z,10.96
2022-12-26T08:06:43.911Z,11.00
2022-12-26T08:09:17.044Z,11.05
2022-12-26T08:11:45.560Z,10.94
2022-12-26T08:14:16.557Z,10.91
2022-12-26T08:16:49.738Z,10.96
2022-12-26T08:19:22.236Z,10.91
2022-12-26T08:21:50.002Z,10.91
2022-12-26T08:24:17.747Z,11.00
2022-12-26T08:26:45.433Z,10.95
2022-12-26T08:29:13.119Z,10.98
2022-12-26T08:31:40.868Z,11.09
2022-12-26T08:34:09.837Z,11.00
2022-12-26T08:36:38.854Z,11.18
2022-12-26T08:39:06.670Z,11.03
2022-12-26T08:41:34.638Z,11.08
2022-12-26T08:46:50.120Z,11.10
2022-12-26T08:49:17.806Z,11.14
2022-12-26T08:51:46.833Z,11.25
2022-12-26T08:54:14.458Z,11.16
2022-12-26T08:56:42.150Z,11.10
2022-12-26T08:59:09.903Z,11.06
2022-12-26T09:01:38.832Z,10.98
2022-12-26T09:04:07.592Z,11.09
2022-12-26T09:06:36.736Z,11.06
2022-12-26T09:09:07.153Z,11.08
2022-12-26T09:11:35.111Z,11.12
2022-12-26T09:14:04.684Z,11.16
2022-12-26T09:16:39.357Z,11.19
2022-12-26T09:19:12.318Z,11.30
2022-12-26T09:21:40.088Z,11.34
2022-12-26T09:24:12.567Z,11.38
2022-12-26T09:26:40.301Z,11.41
2022-12-26T09:29:08.791Z,11.34
2022-12-26T09:31:36.904Z,11.41
2022-12-26T09:34:06.024Z,11.41
2022-12-26T09:36:37.997Z,11.33
2022-12-26T09:39:06.290Z,11.26
2022-12-26T09:41:55.079Z,11.34
2022-12-26T09:44:30.806Z,11.32
2022-12-26T09:47:09.033Z,11.38
2022-12-26T09:49:39.445Z,11.37
2022-12-26T09:52:12.601Z,11.35
2022-12-26T09:54:43.722Z,11.29
2022-12-26T09:57:17.795Z,11.31
2022-12-26T09:59:51.395Z,11.27
2022-12-26T10:02:22.432Z,11.28
2022-12-26T10:04:50.492Z,11.24
2022-12-26T10:07:25.112Z,11.20
2022-12-26T10:10:02.324Z,11.23
2022-12-26T10:12:41.311Z,11.16
2022-12-26T10:15:20.615Z,11.01
2022-12-26T10:17:54.660Z,10.99
2022-12-26T10:20:30.852Z,11.05
2022-12-26T10:23:26.605Z,10.93
2022-12-26T10:25:58.202Z,10.84
2022-12-26T10:28:34.508Z,10.72
2022-12-26T10:31:07.157Z,10.62
2022-12-26T10:33:41.576Z,10.54
2022-12-26T10:36:17.480Z,10.56
2022-12-26T10:38:48.932Z,10.46
2022-12-26T10:41:58.649Z,10.37
2022-12-26T10:44:28.224Z,10.36
2022-12-26T10:47:20.846Z,10.28
2022-12-26T10:49:49.788Z,10.24
2022-12-26T10:52:18.946Z,10.19
2022-12-26T10:54:48.869Z,10.10
2022-12-26T10:57:16.678Z,9.98
2022-12-26T10:59:49.225Z,9.91
2022-12-26T11:02:25.470Z,9.81
2022-12-26T11:07:52.479Z,9.71
2022-12-26T11:10:22.965Z,9.58
2022-12-26T11:12:53.516Z,9.59
2022-12-26T11:15:27.539Z,9.60
2022-12-26T11:17:56.713Z,9.62
2022-12-26T11:20:29.693Z,9.65
2022-12-26T11:23:19.492Z,9.63
2022-12-26T11:25:50.506Z,9.68
2022-12-26T11:28:26.541Z,9.69
2022-12-26T11:30:55.916Z,9.70
2022-12-26T11:33:29.909Z,9.70
2022-12-26T11:36:12.323Z,9.69
2022-12-26T11:38:53.543Z,9.80
2022-12-26T11:41:39.714Z,9.81
2022-12-26T11:44:18.341Z,9.83
2022-12-26T11:46:50.463Z,9.81
2022-12-26T11:49:23.677Z,9.89
2022-12-26T11:51:58.765Z,9.92
2022-12-26T11:54:30.992Z,9.94
2022-12-26T11:57:26.995Z,9.92
2022-12-26T11:59:54.783Z,9.93
2022-12-26T12:02:29.869Z,9.97
2022-12-26T12:05:07.690Z,9.96
2022-12-26T12:08:13.711Z,9.96
2022-12-26T12:11:02.584Z,9.97
2022-12-26T12:13:46.001Z,10.01
2022-12-26T12:16:31.996Z,10.05
2022-12-26T12:19:11.964Z,9.96
2022-12-26T12:21:44.884Z,9.93
2022-12-26T12:24:33.352Z,9.92
2022-12-26T12:27:10.884Z,9.92
2022-12-26T12:30:08.721Z,9.94
2022-12-26T12:32:49.574Z,9.90
2022-12-26T12:35:47.966Z,9.90
2022-12-26T12:38:26.534Z,9.92
2022-12-26T12:41:07.505Z,9.91
2022-12-26T12:43:43.638Z,9.92
2022-12-26T12:46:23.601Z,9.93
2022-12-26T12:49:08.254Z,9.92
2022-12-26T12:51:47.040Z,9.92
2022-12-26T12:54:40.896Z,9.96
2022-12-26T12:57:17.941Z,9.99
2022-12-26T12:59:58.249Z,10.09
2022-12-26T13:02:32.287Z,10.11
2022-12-26T13:05:07.323Z,10.12
2022-12-26T13:07:46.898Z,10.13
2022-12-26T13:10:20.463Z,10.10
2022-12-26T13:12:50.189Z,10.13
2022-12-26T13:15:28.270Z,10.08
2022-12-26T13:18:03.184Z,10.06
2022-12-26T13:20:38.452Z,10.07
2022-12-26T13:23:32.062Z,10.03
2022-12-26T13:26:09.548Z,10.00
2022-12-26T13:28:55.555Z,10.00
2022-12-26T13:31:23.454Z,10.01
2022-12-26T13:33:51.239Z,10.03
2022-12-26T13:36:43.936Z,10.04
2022-12-26T13:39:31.780Z,10.08
2022-12-26T13:42:21.900Z,10.06
2022-12-26T13:44:53.403Z,10.09
2022-12-26T13:47:37.182Z,10.03
2022-12-26T13:50:42.219Z,10.06
2022-12-26T13:53:30.153Z,10.06
2022-12-26T13:56:02.224Z,10.04
2022-12-26T13:58:50.927Z,10.12
2022-12-26T14:01:32.938Z,10.02
2022-12-26T14:04:23.694Z,10.03
2022-12-26T14:07:16.007Z,10.02
2022-12-26T14:09:59.422Z,10.04
2022-12-26T14:12:47.566Z,10.02
2022-12-26T14:15:35.002Z,10.09
2022-12-26T14:18:22.307Z,10.00
2022-12-26T14:20:58.631Z,9.93
2022-12-26T14:23:45.614Z,9.89
2022-12-26T14:26:28.919Z,9.84
2022-12-26T14:29:06.141Z,9.98
2022-12-26T14:31:42.028Z,9.98
2022-12-26T14:34:22.253Z,10.03
2022-12-26T14:36:57.310Z,10.02
2022-12-26T14:39:36.694Z,9.97
2022-12-26T14:42:35.780Z,9.92
2022-12-26T14:45:13.247Z,10.00
2022-12-26T14:47:44.527Z,9.94
2022-12-26T14:50:41.444Z,9.89
2022-12-26T14:53:29.594Z,9.88
2022-12-26T14:55:58.659Z,9.88
2022-12-26T14:58:43.842Z,9.85
2022-12-26T15:02:00.973Z,9.76
2022-12-26T15:05:07.031Z,9.81
2022-12-26T15:08:03.507Z,9.80
2022-12-26T15:10:57.995Z,9.82
2022-12-26T15:13:50.649Z,9.86
2022-12-26T15:16:30.909Z,9.86
2022-12-26T15:19:35.275Z,9.85
2022-12-26T15:22:24.803Z,9.89
2022-12-26T15:25:20.188Z,9.84
2022-12-26T15:28:16.559Z,9.86
2022-12-26T15:31:03.153Z,9.82
2022-12-26T15:33:38.632Z,9.77
2022-12-26T15:36:16.455Z,9.86
2022-12-26T15:38:53.657Z,9.81
2022-12-26T15:41:32.991Z,9.85
2022-12-26T15:44:25.101Z,9.87
2022-12-26T15:47:04.143Z,9.82
2022-12-26T15:49:46.206Z,9.68
2022-12-26T15:52:25.367Z,9.63
2022-12-26T15:55:07.651Z,9.55
2022-12-26T15:57:46.885Z,9.48
2022-12-26T16:00:18.558Z,9.50
2022-12-26T16:02:50.882Z,9.49
2022-12-26T16:05:41.540Z,9.50
2022-12-26T16:08:51.420Z,9.49
2022-12-26T16:11:23.753Z,9.48
2022-12-26T16:13:58.138Z,9.52
2022-12-26T16:16:32.354Z,9.52
2022-12-26T16:19:16.178Z,9.46
2022-12-26T16:22:06.274Z,9.50
2022-12-26T16:24:36.739Z,9.47
2022-12-26T16:27:08.193Z,9.46
2022-12-26T16:29:45.906Z,9.48
2022-12-26T16:32:19.253Z,9.50
2022-12-26T16:34:47.255Z,9.48
2022-12-26T16:37:19.562Z,9.58
2022-12-26T16:40:05.773Z,9.53
2022-12-26T16:42:35.253Z,9.47
2022-12-26T16:45:03.555Z,9.51
2022-12-26T16:47:33.535Z,9.48
2022-12-26T16:50:01.480Z,9.50
2022-12-26T16:52:39.253Z,9.52
2022-12-26T16:55:26.757Z,9.45
2022-12-26T16:57:59.413Z,9.51
2022-12-26T17:00:27.264Z,9.46
2022-12-26T17:02:57.280Z,9.48
2022-12-26T17:05:29.583Z,9.47
2022-12-26T17:08:00.851Z,9.48
2022-12-26T17:10:32.051Z,9.49
2022-12-26T17:13:03.691Z,9.56
2022-12-26T17:15:34.474Z,9.51
2022-12-26T17:18:32.584Z,9.50
2022-12-26T17:21:17.100Z,9.33
2022-12-26T17:23:44.952Z,9.30
2022-12-26T17:26:19.675Z,9.26
2022-12-26T17:28:51.143Z,9.24
2022-12-26T17:31:24.732Z,9.22
2022-12-26T17:33:56.815Z,9.25
2022-12-26T17:39:21.959Z,9.31
2022-12-26T17:41:55.437Z,9.34
2022-12-26T17:44:39.480Z,9.27
2022-12-26T17:47:18.515Z,9.28
2022-12-26T17:49:46.148Z,9.32
2022-12-26T17:52:15.608Z,9.33
2022-12-26T17:54:43.590Z,9.34
2022-12-26T17:57:19.213Z,9.41
2022-12-26T17:59:49.670Z,9.40
2022-12-26T18:02:17.915Z,9.51
2022-12-26T18:04:46.711Z,9.59
2022-12-26T18:07:30.930Z,9.52
2022-12-26T18:10:02.967Z,9.51
2022-12-26T18:12:31.626Z,9.54
2022-12-26T18:15:03.407Z,9.51
2022-12-26T18:17:34.109Z,9.52
2022-12-26T18:20:02.250Z,9.52
2022-12-26T18:22:30.021Z,9.59
2022-12-26T18:24:57.751Z,9.55
2022-12-26T18:27:30.332Z,9.63
2022-12-26T18:29:58.608Z,9.62
2022-12-26T18:32:35.889Z,9.66
2022-12-26T18:35:03.849Z,9.66
2022-12-26T18:37:32.079Z,9.65
2022-12-26T18:40:00.167Z,9.63
2022-12-26T18:42:28.217Z,9.57
2022-12-26T18:44:58.642Z,9.60
2022-12-26T18:47:27.761Z,9.60
2022-12-26T18:49:55.375Z,9.62
2022-12-26T18:52:23.250Z,9.62
2022-12-26T18:54:51.084Z,9.61
2022-12-26T18:57:20.860Z,9.50
2022-12-26T18:59:49.063Z,9.44
2022-12-26T19:02:18.693Z,9.45
2022-12-26T19:04:48.947Z,9.36
2022-12-26T19:07:18.060Z,9.31
2022-12-26T19:09:48.049Z,9.11
2022-12-26T19:12:17.226Z,8.97
2022-12-26T19:14:45.572Z,8.68
2022-12-26T19:17:13.340Z,8.46
2022-12-26T19:19:41.227Z,8.32
2022-12-26T19:22:10.717Z,8.21
2022-12-26T19:24:38.754Z,8.18
2022-12-26T19:27:06.473Z,8.16
2022-12-26T19:29:34.080Z,8.18
2022-12-26T19:32:01.757Z,8.11
2022-12-26T19:34:29.781Z,8.14
2022-12-26T19:36:57.441Z,8.18
2022-12-26T19:39:26.452Z,8.22
2022-12-26T19:41:54.201Z,8.24
2022-12-26T19:44:21.952Z,8.24
2022-12-26T19:46:49.603Z,8.23
2022-12-26T19:49:37.248Z,8.21
2022-12-26T19:52:05.367Z,8.18
2022-12-26T19:54:34.525Z,8.15
2022-12-26T19:57:02.177Z,8.21
2022-12-26T19:59:29.864Z,8.15
2022-12-26T20:01:57.774Z,8.10
2022-12-26T20:04:25.679Z,8.10
2022-12-26T20:06:53.341Z,8.11
2022-12-26T20:09:21.037Z,8.09
2022-12-26T20:11:50.664Z,8.09
2022-12-26T20:14:20.576Z,8.03
2022-12-26T20:17:08.859Z,8.04
2022-12-26T20:19:37.664Z,7.97
2022-12-26T20:22:06.416Z,7.96
2022-12-26T20:24:34.395Z,7.92
2022-12-26T20:27:04.012Z,7.85
2022-12-26T20:29:33.152Z,7.91
2022-12-26T20:32:01.597Z,7.89
2022-12-26T20:34:29.287Z,7.94
2022-12-26T20:36:57.385Z,7.91
2022-12-26T20:39:28.446Z,7.93
2022-12-26T20:41:56.135Z,7.93
2022-12-26T20:44:25.524Z,7.88
2022-12-26T20:46:53.250Z,7.91
2022-12-26T20:49:20.952Z,7.94
2022-12-26T20:51:48.622Z,7.82
2022-12-26T20:54:18.513Z,7.87
2022-12-26T20:56:46.574Z,7.89
2022-12-26T20:59:14.333Z,7.93
2022-12-26T21:01:43.644Z,7.89
2022-12-26T21:04:18.697Z,7.87
2022-12-26T21:06:47.458Z,7.85
2022-12-26T21:09:15.444Z,7.85
2022-12-26T21:11:45.359Z,7.89
2022-12-26T21:14:17.537Z,7.91
2022-12-26T21:16:49.245Z,7.97
2022-12-26T21:19:17.885Z,7.98
2022-12-26T21:21:47.244Z,7.94
2022-12-26T21:24:18.357Z,7.93
2022-12-26T21:26:46.941Z,7.90
2022-12-26T21:29:21.124Z,8.01
2022-12-26T21:31:50.576Z,7.98
2022-12-26T21:34:20.764Z,7.97
2022-12-26T21:37:02.862Z,7.97
2022-12-26T21:39:30.711Z,8.00
2022-12-26T21:41:58.534Z,7.98
2022-12-26T21:44:26.558Z,7.97
2022-12-26T21:46:55.597Z,8.01
2022-12-26T21:49:23.358Z,7.98
2022-12-26T21:51:51.138Z,7.96
2022-12-26T21:54:36.401Z,7.96
2022-12-26T21:57:04.230Z,7.95
2022-12-26T22:00:04.106Z,7.94
2022-12-26T22:02:53.412Z,7.90
2022-12-26T22:05:23.607Z,7.85
2022-12-26T22:07:56.158Z,7.80
2022-12-26T22:10:43.361Z,7.78
2022-12-26T22:13:11.467Z,7.78
2022-12-26T22:16:00.084Z,7.71
2022-12-26T22:18:29.783Z,7.65
2022-12-26T22:20:57.910Z,7.57
2022-12-26T22:23:25.603Z,7.48
2022-12-26T22:25:54.693Z,7.47
2022-12-26T22:28:23.695Z,7.41
2022-12-26T22:30:52.331Z,7.39
2022-12-26T22:33:20.558Z,7.36
2022-12-26T22:35:50.038Z,7.36
2022-12-26T22:38:18.037Z,7.32
2022-12-26T22:40:54.600Z,7.28
2022-12-26T22:43:22.391Z,7.25
2022-12-26T22:45:51.429Z,7.31
2022-12-26T22:48:19.819Z,7.35
2022-12-26T22:50:52.678Z,7.42
2022-12-26T22:53:23.087Z,7.39
2022-12-26T22:55:52.789Z,7.46
2022-12-26T22:58:20.581Z,7.49
2022-12-26T23:00:48.309Z,7.48
2022-12-26T23:03:16.473Z,7.52
2022-12-26T23:05:45.014Z,7.62
2022-12-26T23:08:19.506Z,7.55
2022-12-26T23:10:48.514Z,7.16
2022-12-26T23:13:17.682Z,6.86
2022-12-26T23:15:54.605Z,6.61
2022-12-26T23:18:49.775Z,6.37
2022-12-26T23:21:42.228Z,6.19
2022-12-26T23:24:16.366Z,6.00
2022-12-26T23:26:46.140Z,5.74
2022-12-26T23:29:32.831Z,5.40
2022-12-26T23:32:00.557Z,5.31
2022-12-26T23:34:29.205Z,5.26
2022-12-26T23:36:57.116Z,5.29
2022-12-26T23:39:26.384Z,5.31
2022-12-26T23:41:54.281Z,5.33
2022-12-26T23:44:22.187Z,5.34
2022-12-26T23:46:49.937Z,5.44
2022-12-26T23:49:17.688Z,5.48
2022-12-26T23:51:45.512Z,5.50
2022-12-26T23:54:13.135Z,5.51
2022-12-26T23:56:42.130Z,5.50
2022-12-26T23:59:10.179Z,5.57
